sensor_id;sensor_type;location;lat;lon;timestamp;temperature;humidity
27922;DHT22;15261;50.356;10.340;2024-03-23T00:54:53;6.50;99.90
27922;DHT22;15261;50.356;10.340;2024-03-23T00:57:53;6.50;99.90
27922;DHT22;15261;50.356;10.340;2024-03-23T01:00:19;6.50;99.90
27922;DHT22;15261;50.356;10.340;2024-03-23T01:02:44;6.40;99.90
27922;DHT22;15261;50.356;10.340;2024-03-23T01:05:10;6.40;99.90
27922;DHT22;15261;50.356;10.340;2024-03-23T01:07:56;6.40;99.90
27922;DHT22;15261;50.356;10.340;2024-03-23T01:10:22;6.40;99.90
27922;DHT22;15261;50.356;10.340;2024-03-23T01:12:47;6.40;99.90
27922;DHT22;15261;50.356;10.340;2024-03-23T01:15:13;6.40;99.90
27922;DHT22;15261;50.356;10.340;2024-03-23T01:17:38;6.40;99.90
27922;DHT22;15261;50.356;10.340;2024-03-23T01:20:04;6.50;99.90
27922;DHT22;15261;50.356;10.340;2024-03-23T01:22:31;6.30;99.90
27922;DHT22;15261;50.356;10.340;2024-03-23T01:24:57;6.20;99.90
27922;DHT22;15261;50.356;10.340;2024-03-23T01:27:22;6.10;99.90
27922;DHT22;15261;50.356;10.340;2024-03-23T01:29:48;6.00;99.90
27922;DHT22;15261;50.356;10.340;2024-03-23T01:32:14;5.90;99.90
27922;DHT22;15261;50.356;10.340;2024-03-23T01:34:39;6.00;99.90
27922;DHT22;15261;50.356;10.340;2024-03-23T01:37:05;6.00;99.90
27922;DHT22;15261;50.356;10.340;2024-03-23T01:39:30;5.90;99.90
27922;DHT22;15261;50.356;10.340;2024-03-23T01:41:56;5.90;99.90
27922;DHT22;15261;50.356;10.340;2024-03-23T01:44:21;5.90;99.90
27922;DHT22;15261;50.356;10.340;2024-03-23T01:46:47;5.90;99.90
27922;DHT22;15261;50.356;10.340;2024-03-23T01:49:13;5.90;99.90
27922;DHT22;15261;50.356;10.340;2024-03-23T01:51:39;5.80;99.90
27922;DHT22;15261;50.356;10.340;2024-03-23T01:54:06;5.90;99.90
27922;DHT22;15261;50.356;10.340;2024-03-23T01:56:33;5.90;99.90
27922;DHT22;15261;50.356;10.340;2024-03-23T01:59:04;6.10;99.90
27922;DHT22;15261;50.356;10.340;2024-03-23T02:17:02;6.50;99.90
27922;DHT22;15261;50.356;10.340;2024-03-23T02:19:28;6.40;99.90
27922;DHT22;15261;50.356;10.340;2024-03-23T02:21:54;6.20;99.90
27922;DHT22;15261;50.356;10.340;2024-03-23T02:24:19;6.20;99.90
27922;DHT22;15261;50.356;10.340;2024-03-23T02:26:45;6.30;99.90
27922;DHT22;15261;50.356;10.340;2024-03-23T02:29:13;6.30;99.90
27922;DHT22;15261;50.356;10.340;2024-03-23T02:31:39;6.30;99.90
27922;DHT22;15261;50.356;10.340;2024-03-23T02:34:04;6.40;99.90
27922;DHT22;15261;50.356;10.340;2024-03-23T02:36:30;6.50;99.90
27922;DHT22;15261;50.356;10.340;2024-03-23T02:38:56;6.60;99.90
27922;DHT22;15261;50.356;10.340;2024-03-23T02:41:22;6.70;99.90
27922;DHT22;15261;50.356;10.340;2024-03-23T02:43:52;6.80;99.90
27922;DHT22;15261;50.356;10.340;2024-03-23T02:46:17;6.90;99.90
27922;DHT22;15261;50.356;10.340;2024-03-23T02:48:43;7.00;99.90
27922;DHT22;15261;50.356;10.340;2024-03-23T02:51:09;7.00;99.90
27922;DHT22;15261;50.356;10.340;2024-03-23T02:53:34;7.10;99.90
27922;DHT22;15261;50.356;10.340;2024-03-23T02:56:00;7.30;99.90
27922;DHT22;15261;50.356;10.340;2024-03-23T02:58:26;7.30;99.90
27922;DHT22;15261;50.356;10.340;2024-03-23T03:00:51;7.20;99.90
27922;DHT22;15261;50.356;10.340;2024-03-23T03:03:17;7.10;99.90
27922;DHT22;15261;50.356;10.340;2024-03-23T03:05:42;7.10;99.90
27922;DHT22;15261;50.356;10.340;2024-03-23T03:08:08;6.80;99.90
27922;DHT22;15261;50.356;10.340;2024-03-23T03:10:33;6.80;99.90
27922;DHT22;15261;50.356;10.340;2024-03-23T03:13:01;6.90;99.90
27922;DHT22;15261;50.356;10.340;2024-03-23T03:15:27;7.00;99.90
27922;DHT22;15261;50.356;10.340;2024-03-23T03:17:53;6.90;99.90
27922;DHT22;15261;50.356;10.340;2024-03-23T03:20:18;7.00;99.90
27922;DHT22;15261;50.356;10.340;2024-03-23T03:22:44;7.00;99.90
27922;DHT22;15261;50.356;10.340;2024-03-23T03:25:09;7.10;99.90
27922;DHT22;15261;50.356;10.340;2024-03-23T03:27:35;7.10;99.90
27922;DHT22;15261;50.356;10.340;2024-03-23T03:30:01;7.30;99.90
27922;DHT22;15261;50.356;10.340;2024-03-23T03:32:29;7.40;99.90
27922;DHT22;15261;50.356;10.340;2024-03-23T03:34:54;7.50;99.90
27922;DHT22;15261;50.356;10.340;2024-03-23T03:37:20;7.50;99.90
27922;DHT22;15261;50.356;10.340;2024-03-23T03:39:45;7.50;99.90
27922;DHT22;15261;50.356;10.340;2024-03-23T03:42:11;7.50;99.90
27922;DHT22;15261;50.356;10.340;2024-03-23T03:44:37;7.50;99.90
27922;DHT22;15261;50.356;10.340;2024-03-23T03:47:02;7.40;99.90
27922;DHT22;15261;50.356;10.340;2024-03-23T03:49:28;7.40;99.90
27922;DHT22;15261;50.356;10.340;2024-03-23T03:51:53;7.30;99.90
27922;DHT22;15261;50.356;10.340;2024-03-23T03:54:19;7.30;99.90
27922;DHT22;15261;50.356;10.340;2024-03-23T03:56:44;7.20;99.90
27922;DHT22;15261;50.356;10.340;2024-03-23T03:59:10;7.20;99.90
27922;DHT22;15261;50.356;10.340;2024-03-23T04:01:35;7.20;99.90
27922;DHT22;15261;50.356;10.340;2024-03-23T04:04:01;7.20;99.90
27922;DHT22;15261;50.356;10.340;2024-03-23T04:06:27;7.30;99.90
27922;DHT22;15261;50.356;10.340;2024-03-23T04:08:52;7.30;99.90
27922;DHT22;15261;50.356;10.340;2024-03-23T04:11:18;7.30;99.90
27922;DHT22;15261;50.356;10.340;2024-03-23T04:13:43;7.30;99.90
27922;DHT22;15261;50.356;10.340;2024-03-23T04:16:09;7.20;99.90
27922;DHT22;15261;50.356;10.340;2024-03-23T04:18:35;7.20;99.90
27922;DHT22;15261;50.356;10.340;2024-03-23T04:21:00;7.30;99.90
27922;DHT22;15261;50.356;10.340;2024-03-23T04:23:26;7.40;99.90
27922;DHT22;15261;50.356;10.340;2024-03-23T04:25:52;7.40;99.90
27922;DHT22;15261;50.356;10.340;2024-03-23T04:28:18;7.50;99.90
27922;DHT22;15261;50.356;10.340;2024-03-23T04:30:44;7.40;99.90
27922;DHT22;15261;50.356;10.340;2024-03-23T04:33:10;7.40;99.90
27922;DHT22;15261;50.356;10.340;2024-03-23T04:35:35;7.20;99.90
27922;DHT22;15261;50.356;10.340;2024-03-23T04:38:01;7.20;99.90
27922;DHT22;15261;50.356;10.340;2024-03-23T04:40:27;7.20;99.90
27922;DHT22;15261;50.356;10.340;2024-03-23T04:42:52;7.20;99.90
27922;DHT22;15261;50.356;10.340;2024-03-23T04:45:18;7.20;99.90
27922;DHT22;15261;50.356;10.340;2024-03-23T04:47:43;7.20;99.90
27922;DHT22;15261;50.356;10.340;2024-03-23T04:50:09;7.30;99.90
27922;DHT22;15261;50.356;10.340;2024-03-23T04:52:37;7.20;99.90
27922;DHT22;15261;50.356;10.340;2024-03-23T04:55:03;7.20;99.90
27922;DHT22;15261;50.356;10.340;2024-03-23T04:57:29;7.40;99.90
27922;DHT22;15261;50.356;10.340;2024-03-23T04:59:55;7.30;99.90
27922;DHT22;15261;50.356;10.340;2024-03-23T05:02:20;7.30;99.90
27922;DHT22;15261;50.356;10.340;2024-03-23T05:04:46;7.30;99.90
27922;DHT22;15261;50.356;10.340;2024-03-23T05:07:11;7.20;99.90
27922;DHT22;15261;50.356;10.340;2024-03-23T05:09:37;7.20;99.90
27922;DHT22;15261;50.356;10.340;2024-03-23T05:12:02;7.30;99.90
27922;DHT22;15261;50.356;10.340;2024-03-23T05:14:28;7.30;99.90
27922;DHT22;15261;50.356;10.340;2024-03-23T05:16:54;7.30;99.90
27922;DHT22;15261;50.356;10.340;2024-03-23T05:19:21;7.30;99.90
27922;DHT22;15261;50.356;10.340;2024-03-23T05:21:46;7.30;99.90
27922;DHT22;15261;50.356;10.340;2024-03-23T05:24:12;7.30;99.90
27922;DHT22;15261;50.356;10.340;2024-03-23T05:26:38;7.30;99.90
27922;DHT22;15261;50.356;10.340;2024-03-23T05:29:03;7.30;99.90
27922;DHT22;15261;50.356;10.340;2024-03-23T05:31:30;7.30;99.90
27922;DHT22;15261;50.356;10.340;2024-03-23T05:33:56;7.40;99.90
27922;DHT22;15261;50.356;10.340;2024-03-23T05:36:22;7.40;99.90
27922;DHT22;15261;50.356;10.340;2024-03-23T05:38:49;7.40;99.90
27922;DHT22;15261;50.356;10.340;2024-03-23T05:41:14;7.40;99.90
27922;DHT22;15261;50.356;10.340;2024-03-23T05:43:40;7.30;99.90
27922;DHT22;15261;50.356;10.340;2024-03-23T05:46:06;7.30;99.90
27922;DHT22;15261;50.356;10.340;2024-03-23T05:48:31;7.30;99.90
27922;DHT22;15261;50.356;10.340;2024-03-23T05:50:57;7.30;99.90
27922;DHT22;15261;50.356;10.340;2024-03-23T05:53:24;7.20;99.90
27922;DHT22;15261;50.356;10.340;2024-03-23T05:55:50;7.20;99.90
27922;DHT22;15261;50.356;10.340;2024-03-23T05:58:18;7.20;99.90
27922;DHT22;15261;50.356;10.340;2024-03-23T06:00:45;7.20;99.90
27922;DHT22;15261;50.356;10.340;2024-03-23T06:03:11;7.30;99.90
27922;DHT22;15261;50.356;10.340;2024-03-23T06:05:37;7.40;99.90
27922;DHT22;15261;50.356;10.340;2024-03-23T06:08:03;7.60;99.90
27922;DHT22;15261;50.356;10.340;2024-03-23T06:10:29;7.70;99.90
27922;DHT22;15261;50.356;10.340;2024-03-23T06:12:55;7.80;99.90
27922;DHT22;15261;50.356;10.340;2024-03-23T06:15:21;7.90;99.90
27922;DHT22;15261;50.356;10.340;2024-03-23T06:17:48;7.90;99.90
27922;DHT22;15261;50.356;10.340;2024-03-23T06:20:14;8.00;99.90
27922;DHT22;15261;50.356;10.340;2024-03-23T06:22:39;8.20;99.90
27922;DHT22;15261;50.356;10.340;2024-03-23T06:25:05;8.40;99.90
27922;DHT22;15261;50.356;10.340;2024-03-23T06:27:32;8.50;99.90
27922;DHT22;15261;50.356;10.340;2024-03-23T06:29:58;8.60;99.90
27922;DHT22;15261;50.356;10.340;2024-03-23T06:32:24;8.60;99.90
27922;DHT22;15261;50.356;10.340;2024-03-23T06:34:49;8.70;99.90
27922;DHT22;15261;50.356;10.340;2024-03-23T06:37:15;8.70;99.90
27922;DHT22;15261;50.356;10.340;2024-03-23T06:39:49;8.70;99.90
27922;DHT22;15261;50.356;10.340;2024-03-23T06:42:15;8.80;99.90
27922;DHT22;15261;50.356;10.340;2024-03-23T06:44:41;8.90;99.90
27922;DHT22;15261;50.356;10.340;2024-03-23T06:47:07;9.10;99.90
27922;DHT22;15261;50.356;10.340;2024-03-23T06:49:32;9.40;99.90
27922;DHT22;15261;50.356;10.340;2024-03-23T06:51:58;9.40;99.90
27922;DHT22;15261;50.356;10.340;2024-03-23T06:54:24;9.50;99.90
27922;DHT22;15261;50.356;10.340;2024-03-23T06:56:50;9.60;99.90
27922;DHT22;15261;50.356;10.340;2024-03-23T06:59:15;9.60;99.90
27922;DHT22;15261;50.356;10.340;2024-03-23T07:01:41;9.60;99.90
27922;DHT22;15261;50.356;10.340;2024-03-23T07:04:07;9.50;99.90
27922;DHT22;15261;50.356;10.340;2024-03-23T07:06:33;9.40;99.90
27922;DHT22;15261;50.356;10.340;2024-03-23T07:08:59;9.20;99.90
27922;DHT22;15261;50.356;10.340;2024-03-23T07:11:24;9.00;99.90
27922;DHT22;15261;50.356;10.340;2024-03-23T07:13:50;9.00;99.90
27922;DHT22;15261;50.356;10.340;2024-03-23T07:16:17;9.00;99.90
27922;DHT22;15261;50.356;10.340;2024-03-23T07:18:42;9.00;99.90
27922;DHT22;15261;50.356;10.340;2024-03-23T07:21:08;8.90;99.90
27922;DHT22;15261;50.356;10.340;2024-03-23T07:23:33;8.80;99.90
27922;DHT22;15261;50.356;10.340;2024-03-23T07:26:00;8.80;99.90
27922;DHT22;15261;50.356;10.340;2024-03-23T07:28:26;8.80;99.90
27922;DHT22;15261;50.356;10.340;2024-03-23T07:31:07;8.80;99.90
27922;DHT22;15261;50.356;10.340;2024-03-23T07:33:41;8.80;99.90
27922;DHT22;15261;50.356;10.340;2024-03-23T07:36:07;8.80;99.90
27922;DHT22;15261;50.356;10.340;2024-03-23T07:38:32;8.70;99.90
27922;DHT22;15261;50.356;10.340;2024-03-23T07:41:19;8.60;99.90
27922;DHT22;15261;50.356;10.340;2024-03-23T07:43:46;8.40;99.90
27922;DHT22;15261;50.356;10.340;2024-03-23T07:46:12;8.20;99.90
27922;DHT22;15261;50.356;10.340;2024-03-23T07:49:06;8.10;99.90
27922;DHT22;15261;50.356;10.340;2024-03-23T07:51:39;8.00;99.90
27922;DHT22;15261;50.356;10.340;2024-03-23T07:54:05;8.00;99.90
27922;DHT22;15261;50.356;10.340;2024-03-23T07:56:31;8.00;99.90
27922;DHT22;15261;50.356;10.340;2024-03-23T07:58:57;8.10;99.90
27922;DHT22;15261;50.356;10.340;2024-03-23T08:01:23;8.30;99.90
27922;DHT22;15261;50.356;10.340;2024-03-23T08:03:49;8.40;99.90
27922;DHT22;15261;50.356;10.340;2024-03-23T08:06:16;8.40;99.90
27922;DHT22;15261;50.356;10.340;2024-03-23T08:08:44;8.60;99.90
27922;DHT22;15261;50.356;10.340;2024-03-23T08:11:11;8.70;99.90
27922;DHT22;15261;50.356;10.340;2024-03-23T08:13:41;8.70;99.90
27922;DHT22;15261;50.356;10.340;2024-03-23T08:16:07;8.80;99.90
27922;DHT22;15261;50.356;10.340;2024-03-23T08:18:34;8.80;99.90
27922;DHT22;15261;50.356;10.340;2024-03-23T08:21:03;8.60;99.90
27922;DHT22;15261;50.356;10.340;2024-03-23T08:23:30;8.60;99.90
27922;DHT22;15261;50.356;10.340;2024-03-23T08:25:58;8.70;99.90
27922;DHT22;15261;50.356;10.340;2024-03-23T08:28:24;8.70;99.90
27922;DHT22;15261;50.356;10.340;2024-03-23T08:30:51;8.80;99.90
27922;DHT22;15261;50.356;10.340;2024-03-23T08:33:17;8.80;99.90
27922;DHT22;15261;50.356;10.340;2024-03-23T08:35:42;8.80;99.90
27922;DHT22;15261;50.356;10.340;2024-03-23T08:38:08;8.80;99.90
27922;DHT22;15261;50.356;10.340;2024-03-23T08:40:33;8.90;99.90
27922;DHT22;15261;50.356;10.340;2024-03-23T08:42:59;8.70;99.90
27922;DHT22;15261;50.356;10.340;2024-03-23T08:45:25;8.70;99.90
27922;DHT22;15261;50.356;10.340;2024-03-23T08:47:51;8.60;99.90
27922;DHT22;15261;50.356;10.340;2024-03-23T08:50:17;8.40;99.90
27922;DHT22;15261;50.356;10.340;2024-03-23T08:52:42;8.70;99.90
27922;DHT22;15261;50.356;10.340;2024-03-23T08:55:08;8.70;99.90
27922;DHT22;15261;50.356;10.340;2024-03-23T08:57:35;8.70;99.90
27922;DHT22;15261;50.356;10.340;2024-03-23T09:00:01;9.00;99.90
27922;DHT22;15261;50.356;10.340;2024-03-23T09:02:26;9.50;99.90
27922;DHT22;15261;50.356;10.340;2024-03-23T09:04:52;9.50;98.70
27922;DHT22;15261;50.356;10.340;2024-03-23T09:07:17;9.70;98.70
27922;DHT22;15261;50.356;10.340;2024-03-23T09:09:43;9.70;97.80
27922;DHT22;15261;50.356;10.340;2024-03-23T09:12:09;9.80;97.90
27922;DHT22;15261;50.356;10.340;2024-03-23T09:14:34;9.70;96.70
27922;DHT22;15261;50.356;10.340;2024-03-23T09:17:00;9.70;96.90
27922;DHT22;15261;50.356;10.340;2024-03-23T09:19:29;9.90;97.20
27922;DHT22;15261;50.356;10.340;2024-03-23T09:21:55;10.00;95.40
27922;DHT22;15261;50.356;10.340;2024-03-23T09:24:21;10.00;95.20
27922;DHT22;15261;50.356;10.340;2024-03-23T09:26:46;9.50;95.10
27922;DHT22;15261;50.356;10.340;2024-03-23T09:29:12;9.40;95.80
27922;DHT22;15261;50.356;10.340;2024-03-23T09:31:40;9.40;96.00
27922;DHT22;15261;50.356;10.340;2024-03-23T09:34:06;9.30;95.10
27922;DHT22;15261;50.356;10.340;2024-03-23T09:36:32;9.20;95.10
27922;DHT22;15261;50.356;10.340;2024-03-23T09:38:57;9.10;94.80
27922;DHT22;15261;50.356;10.340;2024-03-23T09:41:23;9.10;95.50
27922;DHT22;15261;50.356;10.340;2024-03-23T09:43:52;9.30;94.90
27922;DHT22;15261;50.356;10.340;2024-03-23T09:46:18;9.50;94.60
27922;DHT22;15261;50.356;10.340;2024-03-23T09:48:46;10.00;95.10
27922;DHT22;15261;50.356;10.340;2024-03-23T09:51:14;10.40;94.20
27922;DHT22;15261;50.356;10.340;2024-03-23T09:53:44;10.50;93.50
27922;DHT22;15261;50.356;10.340;2024-03-23T09:56:09;10.50;93.00
27922;DHT22;15261;50.356;10.340;2024-03-23T09:58:36;10.40;93.00
27922;DHT22;15261;50.356;10.340;2024-03-23T10:01:03;10.40;93.30
27922;DHT22;15261;50.356;10.340;2024-03-23T10:03:29;10.50;93.00
27922;DHT22;15261;50.356;10.340;2024-03-23T10:06:02;10.30;93.60
27922;DHT22;15261;50.356;10.340;2024-03-23T10:08:29;10.30;94.20
27922;DHT22;15261;50.356;10.340;2024-03-23T10:10:55;10.10;94.10
27922;DHT22;15261;50.356;10.340;2024-03-23T10:13:27;9.90;94.50
27922;DHT22;15261;50.356;10.340;2024-03-23T10:15:58;9.60;94.70
27922;DHT22;15261;50.356;10.340;2024-03-23T10:18:25;9.60;95.00
27922;DHT22;15261;50.356;10.340;2024-03-23T10:21:06;9.60;94.90
27922;DHT22;15261;50.356;10.340;2024-03-23T10:23:33;9.80;95.20
27922;DHT22;15261;50.356;10.340;2024-03-23T10:26:27;10.40;94.90
27922;DHT22;15261;50.356;10.340;2024-03-23T10:29:00;10.90;93.60
27922;DHT22;15261;50.356;10.340;2024-03-23T10:31:30;10.60;93.10
27922;DHT22;15261;50.356;10.340;2024-03-23T10:33:57;10.40;93.30
27922;DHT22;15261;50.356;10.340;2024-03-23T10:36:24;10.20;93.80
27922;DHT22;15261;50.356;10.340;2024-03-23T10:38:51;10.10;93.70
27922;DHT22;15261;50.356;10.340;2024-03-23T10:41:17;9.80;94.20
27922;DHT22;15261;50.356;10.340;2024-03-23T10:43:46;9.70;94.30
27922;DHT22;15261;50.356;10.340;2024-03-23T11:50:20;10.40;87.40
27922;DHT22;15261;50.356;10.340;2024-03-23T11:52:45;10.90;90.90
27922;DHT22;15261;50.356;10.340;2024-03-23T11:55:11;11.00;90.30
27922;DHT22;15261;50.356;10.340;2024-03-23T11:57:37;11.00;91.00
27922;DHT22;15261;50.356;10.340;2024-03-23T12:00:20;10.90;91.90
27922;DHT22;15261;50.356;10.340;2024-03-23T12:02:46;10.60;91.70
27922;DHT22;15261;50.356;10.340;2024-03-23T12:05:15;10.30;92.10
27922;DHT22;15261;50.356;10.340;2024-03-23T12:07:41;10.20;92.60
27922;DHT22;15261;50.356;10.340;2024-03-23T12:10:07;9.90;92.00
27922;DHT22;15261;50.356;10.340;2024-03-23T12:12:32;10.00;92.20
27922;DHT22;15261;50.356;10.340;2024-03-23T12:17:28;10.30;91.60
27922;DHT22;15261;50.356;10.340;2024-03-23T12:19:54;10.40;91.30
27922;DHT22;15261;50.356;10.340;2024-03-23T12:22:23;10.60;90.60
27922;DHT22;15261;50.356;10.340;2024-03-23T12:24:49;10.40;90.20
27922;DHT22;15261;50.356;10.340;2024-03-23T12:27:15;10.10;89.40
27922;DHT22;15261;50.356;10.340;2024-03-23T12:29:41;9.90;88.70
27922;DHT22;15261;50.356;10.340;2024-03-23T12:32:08;9.90;88.90
27922;DHT22;15261;50.356;10.340;2024-03-23T12:34:34;10.10;90.80
27922;DHT22;15261;50.356;10.340;2024-03-23T12:37:00;10.40;90.20
27922;DHT22;15261;50.356;10.340;2024-03-23T12:39:26;10.80;86.80
27922;DHT22;15261;50.356;10.340;2024-03-23T12:41:52;11.00;86.90
27922;DHT22;15261;50.356;10.340;2024-03-23T12:44:20;11.20;86.10
27922;DHT22;15261;50.356;10.340;2024-03-23T12:46:46;11.10;85.10
27922;DHT22;15261;50.356;10.340;2024-03-23T12:49:12;11.10;87.80
27922;DHT22;15261;50.356;10.340;2024-03-23T12:51:38;11.20;88.90
27922;DHT22;15261;50.356;10.340;2024-03-23T12:54:03;11.10;89.70
27922;DHT22;15261;50.356;10.340;2024-03-23T12:56:30;11.10;89.40
27922;DHT22;15261;50.356;10.340;2024-03-23T12:58:56;11.20;90.20
27922;DHT22;15261;50.356;10.340;2024-03-23T13:01:26;11.20;88.70
27922;DHT22;15261;50.356;10.340;2024-03-23T13:03:51;10.80;88.20
27922;DHT22;15261;50.356;10.340;2024-03-23T13:06:18;10.60;86.80
27922;DHT22;15261;50.356;10.340;2024-03-23T13:08:47;10.70;87.70
27922;DHT22;15261;50.356;10.340;2024-03-23T13:11:15;10.70;89.00
27922;DHT22;15261;50.356;10.340;2024-03-23T13:13:41;10.70;89.20
27922;DHT22;15261;50.356;10.340;2024-03-23T13:16:07;10.70;89.10
27922;DHT22;15261;50.356;10.340;2024-03-23T13:18:33;10.70;89.80
27922;DHT22;15261;50.356;10.340;2024-03-23T13:20:59;10.80;86.40
27922;DHT22;15261;50.356;10.340;2024-03-23T13:23:25;10.90;85.50
27922;DHT22;15261;50.356;10.340;2024-03-23T13:25:51;11.10;84.30
27922;DHT22;15261;50.356;10.340;2024-03-23T13:28:19;11.30;84.00
27922;DHT22;15261;50.356;10.340;2024-03-23T13:30:55;11.60;84.30
27922;DHT22;15261;50.356;10.340;2024-03-23T13:33:21;11.80;84.70
27922;DHT22;15261;50.356;10.340;2024-03-23T13:35:54;11.90;85.70
27922;DHT22;15261;50.356;10.340;2024-03-23T13:38:21;11.70;85.00
27922;DHT22;15261;50.356;10.340;2024-03-23T13:40:53;11.70;85.80
27922;DHT22;15261;50.356;10.340;2024-03-23T13:43:19;11.70;87.00
27922;DHT22;15261;50.356;10.340;2024-03-23T13:45:47;11.80;87.20
27922;DHT22;15261;50.356;10.340;2024-03-23T13:48:13;11.70;85.70
27922;DHT22;15261;50.356;10.340;2024-03-23T13:50:38;11.60;86.20
27922;DHT22;15261;50.356;10.340;2024-03-23T13:53:04;11.70;86.30
27922;DHT22;15261;50.356;10.340;2024-03-23T13:55:30;11.90;86.30
27922;DHT22;15261;50.356;10.340;2024-03-23T13:57:56;11.80;85.20
27922;DHT22;15261;50.356;10.340;2024-03-23T14:00:21;11.90;85.20
27922;DHT22;15261;50.356;10.340;2024-03-23T14:02:47;12.00;85.30
27922;DHT22;15261;50.356;10.340;2024-03-23T14:05:13;12.10;82.30
27922;DHT22;15261;50.356;10.340;2024-03-23T14:07:38;12.20;83.80
27922;DHT22;15261;50.356;10.340;2024-03-23T14:10:04;12.00;82.70
27922;DHT22;15261;50.356;10.340;2024-03-23T14:12:32;11.90;81.90
27922;DHT22;15261;50.356;10.340;2024-03-23T14:14:57;11.90;82.60
27922;DHT22;15261;50.356;10.340;2024-03-23T14:17:23;11.50;80.80
27922;DHT22;15261;50.356;10.340;2024-03-23T14:19:48;11.50;81.90
27922;DHT22;15261;50.356;10.340;2024-03-23T14:22:15;11.50;82.90
27922;DHT22;15261;50.356;10.340;2024-03-23T14:24:44;11.50;81.80
27922;DHT22;15261;50.356;10.340;2024-03-23T14:27:10;11.40;81.00
27922;DHT22;15261;50.356;10.340;2024-03-23T14:29:36;11.00;80.30
27922;DHT22;15261;50.356;10.340;2024-03-23T14:32:01;10.70;79.90
27922;DHT22;15261;50.356;10.340;2024-03-23T14:34:27;10.50;79.10
27922;DHT22;15261;50.356;10.340;2024-03-23T14:36:53;10.50;79.10
27922;DHT22;15261;50.356;10.340;2024-03-23T14:39:23;10.40;80.70
27922;DHT22;15261;50.356;10.340;2024-03-23T14:41:50;10.30;80.10
27922;DHT22;15261;50.356;10.340;2024-03-23T14:44:15;10.20;82.10
27922;DHT22;15261;50.356;10.340;2024-03-23T14:46:41;10.10;84.00
27922;DHT22;15261;50.356;10.340;2024-03-23T14:49:07;10.10;84.90
27922;DHT22;15261;50.356;10.340;2024-03-23T14:51:33;10.00;82.50
27922;DHT22;15261;50.356;10.340;2024-03-23T14:53:59;9.90;83.40
27922;DHT22;15261;50.356;10.340;2024-03-23T14:56:24;9.90;85.20
27922;DHT22;15261;50.356;10.340;2024-03-23T14:58:52;9.70;87.00
27922;DHT22;15261;50.356;10.340;2024-03-23T15:01:19;9.10;93.10
27922;DHT22;15261;50.356;10.340;2024-03-23T15:03:44;7.90;96.90
27922;DHT22;15261;50.356;10.340;2024-03-23T15:06:10;6.30;99.20
27922;DHT22;15261;50.356;10.340;2024-03-23T15:08:36;5.60;99.90
27922;DHT22;15261;50.356;10.340;2024-03-23T15:11:06;5.10;99.90
27922;DHT22;15261;50.356;10.340;2024-03-23T15:13:35;5.00;99.90
27922;DHT22;15261;50.356;10.340;2024-03-23T15:16:01;4.90;99.90
27922;DHT22;15261;50.356;10.340;2024-03-23T15:18:47;4.90;99.90
27922;DHT22;15261;50.356;10.340;2024-03-23T15:21:16;5.00;99.90
27922;DHT22;15261;50.356;10.340;2024-03-23T15:23:46;5.00;99.90
27922;DHT22;15261;50.356;10.340;2024-03-23T15:26:12;5.20;99.90
27922;DHT22;15261;50.356;10.340;2024-03-23T15:28:39;5.20;99.90
27922;DHT22;15261;50.356;10.340;2024-03-23T15:31:30;5.30;99.90
27922;DHT22;15261;50.356;10.340;2024-03-23T15:33:58;5.40;99.90
27922;DHT22;15261;50.356;10.340;2024-03-23T15:36:25;5.40;99.90
27922;DHT22;15261;50.356;10.340;2024-03-23T15:38:54;5.40;99.90
27922;DHT22;15261;50.356;10.340;2024-03-23T15:41:21;5.50;99.90
27922;DHT22;15261;50.356;10.340;2024-03-23T15:44:18;5.50;99.90
27922;DHT22;15261;50.356;10.340;2024-03-23T15:46:45;5.90;99.90
27922;DHT22;15261;50.356;10.340;2024-03-23T15:49:18;6.20;99.90
27922;DHT22;15261;50.356;10.340;2024-03-23T15:51:47;6.50;99.90
27922;DHT22;15261;50.356;10.340;2024-03-23T15:54:13;6.80;99.90
27922;DHT22;15261;50.356;10.340;2024-03-23T15:56:43;7.00;99.90
27922;DHT22;15261;50.356;10.340;2024-03-23T15:59:13;6.90;99.90
27922;DHT22;15261;50.356;10.340;2024-03-23T16:01:39;6.80;99.90
27922;DHT22;15261;50.356;10.340;2024-03-23T16:04:04;6.80;99.90
27922;DHT22;15261;50.356;10.340;2024-03-23T16:06:34;6.50;99.90
27922;DHT22;15261;50.356;10.340;2024-03-23T16:09:00;6.20;99.90
27922;DHT22;15261;50.356;10.340;2024-03-23T16:11:26;6.00;99.90
27922;DHT22;15261;50.356;10.340;2024-03-23T16:13:51;5.90;99.90
27922;DHT22;15261;50.356;10.340;2024-03-23T16:16:17;5.80;99.90
27922;DHT22;15261;50.356;10.340;2024-03-23T16:18:45;5.70;99.90
27922;DHT22;15261;50.356;10.340;2024-03-23T16:21:11;5.70;99.90
27922;DHT22;15261;50.356;10.340;2024-03-23T16:23:37;5.60;99.90
27922;DHT22;15261;50.356;10.340;2024-03-23T16:26:04;5.60;99.90
27922;DHT22;15261;50.356;10.340;2024-03-23T16:28:31;5.70;99.90
27922;DHT22;15261;50.356;10.340;2024-03-23T16:31:00;5.70;99.90
27922;DHT22;15261;50.356;10.340;2024-03-23T16:33:27;5.70;99.90
27922;DHT22;15261;50.356;10.340;2024-03-23T16:36:03;5.60;99.90
27922;DHT22;15261;50.356;10.340;2024-03-23T16:38:34;5.60;99.90
27922;DHT22;15261;50.356;10.340;2024-03-23T16:41:02;5.50;99.90
27922;DHT22;15261;50.356;10.340;2024-03-23T16:43:30;5.60;99.90
27922;DHT22;15261;50.356;10.340;2024-03-23T16:46:01;5.50;99.90
27922;DHT22;15261;50.356;10.340;2024-03-23T16:48:30;5.50;99.90
27922;DHT22;15261;50.356;10.340;2024-03-23T16:53:32;5.40;99.90
27922;DHT22;15261;50.356;10.340;2024-03-23T16:56:00;5.40;99.90
27922;DHT22;15261;50.356;10.340;2024-03-23T16:58:33;5.40;99.90
27922;DHT22;15261;50.356;10.340;2024-03-23T17:01:09;5.40;99.90
27922;DHT22;15261;50.356;10.340;2024-03-23T17:03:52;5.40;99.90
27922;DHT22;15261;50.356;10.340;2024-03-23T17:06:19;5.40;99.90
27922;DHT22;15261;50.356;10.340;2024-03-23T17:08:45;5.40;99.90
27922;DHT22;15261;50.356;10.340;2024-03-23T17:11:16;5.30;99.90
27922;DHT22;15261;50.356;10.340;2024-03-23T17:13:45;5.20;99.90
27922;DHT22;15261;50.356;10.340;2024-03-23T17:16:12;5.20;99.90
27922;DHT22;15261;50.356;10.340;2024-03-23T17:18:40;5.00;99.90
27922;DHT22;15261;50.356;10.340;2024-03-23T17:21:06;5.00;99.90
27922;DHT22;15261;50.356;10.340;2024-03-23T17:23:34;5.00;99.90
27922;DHT22;15261;50.356;10.340;2024-03-23T17:26:02;5.10;99.90
27922;DHT22;15261;50.356;10.340;2024-03-23T17:28:44;5.10;99.90
27922;DHT22;15261;50.356;10.340;2024-03-23T17:34:32;5.30;99.90
27922;DHT22;15261;50.356;10.340;2024-03-23T17:37:07;5.40;99.90
27922;DHT22;15261;50.356;10.340;2024-03-23T17:40:06;5.50;99.90
27922;DHT22;15261;50.356;10.340;2024-03-23T17:42:39;5.60;99.90
27922;DHT22;15261;50.356;10.340;2024-03-23T17:45:07;5.60;99.90
27922;DHT22;15261;50.356;10.340;2024-03-23T17:47:43;5.60;99.90
27922;DHT22;15261;50.356;10.340;2024-03-23T17:50:10;5.60;99.90